sensor_id;sensor_type;location;lat;lon;timestamp;P1;durP1;ratioP1;P2;durP2;ratioP2
78666;SDS011;67983;59.830;30.198;2023-05-23T00:00:40;6.18;;;4.35;;
78666;SDS011;67983;59.830;30.198;2023-05-23T00:03:09;7.03;;;4.50;;
78666;SDS011;67983;59.830;30.198;2023-05-23T00:05:36;6.22;;;4.63;;
78666;SDS011;67983;59.830;30.198;2023-05-23T00:08:06;6.03;;;4.40;;
78666;SDS011;67983;59.830;30.198;2023-05-23T00:10:33;6.65;;;4.88;;
78666;SDS011;67983;59.830;30.198;2023-05-23T00:13:00;7.70;;;5.05;;
78666;SDS011;67983;59.830;30.198;2023-05-23T00:15:28;6.95;;;4.47;;
78666;SDS011;67983;59.830;30.198;2023-05-23T00:17:55;6.60;;;4.40;;
78666;SDS011;67983;59.830;30.198;2023-05-23T00:20:23;5.68;;;4.30;;
78666;SDS011;67983;59.830;30.198;2023-05-23T00:25:45;6.47;;;4.55;;
78666;SDS011;67983;59.830;30.198;2023-05-23T00:28:17;6.85;;;4.70;;
78666;SDS011;67983;59.830;30.198;2023-05-23T00:30:44;7.90;;;5.63;;
78666;SDS011;67983;59.830;30.198;2023-05-23T00:33:13;6.45;;;4.82;;
78666;SDS011;67983;59.830;30.198;2023-05-23T00:35:44;5.63;;;4.32;;
78666;SDS011;67983;59.830;30.198;2023-05-23T00:38:12;5.82;;;4.30;;
78666;SDS011;67983;59.830;30.198;2023-05-23T00:40:39;5.15;;;4.30;;
78666;SDS011;67983;59.830;30.198;2023-05-23T00:43:06;6.53;;;5.03;;
78666;SDS011;67983;59.830;30.198;2023-05-23T00:45:33;5.47;;;4.35;;
78666;SDS011;67983;59.830;30.198;2023-05-23T00:48:01;6.80;;;4.30;;
78666;SDS011;67983;59.830;30.198;2023-05-23T00:50:29;7.43;;;5.00;;
78666;SDS011;67983;59.830;30.198;2023-05-23T00:52:59;7.22;;;4.65;;
78666;SDS011;67983;59.830;30.198;2023-05-23T00:55:27;8.93;;;5.03;;
78666;SDS011;67983;59.830;30.198;2023-05-23T00:57:55;7.53;;;5.35;;
78666;SDS011;67983;59.830;30.198;2023-05-23T01:00:23;6.70;;;4.50;;
78666;SDS011;67983;59.830;30.198;2023-05-23T01:02:51;7.22;;;5.43;;
78666;SDS011;67983;59.830;30.198;2023-05-23T01:05:19;7.18;;;5.38;;
78666;SDS011;67983;59.830;30.198;2023-05-23T01:07:47;7.22;;;4.82;;
78666;SDS011;67983;59.830;30.198;2023-05-23T01:10:17;7.32;;;5.18;;
78666;SDS011;67983;59.830;30.198;2023-05-23T01:12:50;7.40;;;5.65;;
78666;SDS011;67983;59.830;30.198;2023-05-23T01:15:49;6.85;;;5.10;;
78666;SDS011;67983;59.830;30.198;2023-05-23T01:18:23;10.43;;;5.50;;
78666;SDS011;67983;59.830;30.198;2023-05-23T01:21:00;5.65;;;4.63;;
78666;SDS011;67983;59.830;30.198;2023-05-23T01:23:39;6.90;;;5.13;;
78666;SDS011;67983;59.830;30.198;2023-05-23T01:26:30;6.25;;;4.55;;
78666;SDS011;67983;59.830;30.198;2023-05-23T01:29:02;6.40;;;4.55;;
78666;SDS011;67983;59.830;30.198;2023-05-23T01:31:36;7.05;;;4.60;;
78666;SDS011;67983;59.830;30.198;2023-05-23T01:34:08;5.55;;;4.15;;
78666;SDS011;67983;59.830;30.198;2023-05-23T01:36:39;6.32;;;4.47;;
78666;SDS011;67983;59.830;30.198;2023-05-23T01:39:09;6.93;;;4.85;;
78666;SDS011;67983;59.830;30.198;2023-05-23T01:41:36;7.63;;;5.40;;
78666;SDS011;67983;59.830;30.198;2023-05-23T01:44:05;5.72;;;4.60;;
78666;SDS011;67983;59.830;30.198;2023-05-23T01:46:33;5.82;;;4.70;;
78666;SDS011;67983;59.830;30.198;2023-05-23T01:49:02;6.80;;;4.85;;
78666;SDS011;67983;59.830;30.198;2023-05-23T01:51:31;7.00;;;4.95;;
78666;SDS011;67983;59.830;30.198;2023-05-23T01:54:00;6.95;;;5.28;;
78666;SDS011;67983;59.830;30.198;2023-05-23T01:56:26;6.65;;;4.90;;
78666;SDS011;67983;59.830;30.198;2023-05-23T01:58:54;7.95;;;4.82;;
78666;SDS011;67983;59.830;30.198;2023-05-23T02:01:25;7.22;;;5.22;;
78666;SDS011;67983;59.830;30.198;2023-05-23T02:03:53;5.95;;;4.88;;
78666;SDS011;67983;59.830;30.198;2023-05-23T02:06:21;8.30;;;4.82;;
78666;SDS011;67983;59.830;30.198;2023-05-23T02:08:47;7.25;;;4.88;;
78666;SDS011;67983;59.830;30.198;2023-05-23T02:11:14;6.90;;;5.05;;
78666;SDS011;67983;59.830;30.198;2023-05-23T02:13:41;8.98;;;5.65;;
78666;SDS011;67983;59.830;30.198;2023-05-23T02:16:10;7.85;;;4.68;;
78666;SDS011;67983;59.830;30.198;2023-05-23T02:18:43;7.57;;;4.45;;
78666;SDS011;67983;59.830;30.198;2023-05-23T02:21:12;7.05;;;4.90;;
78666;SDS011;67983;59.830;30.198;2023-05-23T02:23:38;4.95;;;4.03;;
78666;SDS011;67983;59.830;30.198;2023-05-23T02:26:07;5.60;;;4.22;;
78666;SDS011;67983;59.830;30.198;2023-05-23T18:00:29;6.05;;;4.10;;
78666;SDS011;67983;59.830;30.198;2023-05-23T18:02:58;3.67;;;3.00;;
78666;SDS011;67983;59.830;30.198;2023-05-23T18:05:27;4.18;;;2.95;;
78666;SDS011;67983;59.830;30.198;2023-05-23T18:07:56;7.07;;;3.03;;
78666;SDS011;67983;59.830;30.198;2023-05-23T18:10:23;5.32;;;2.63;;
78666;SDS011;67983;59.830;30.198;2023-05-23T18:12:51;5.03;;;3.03;;
78666;SDS011;67983;59.830;30.198;2023-05-23T18:15:22;4.72;;;3.05;;
78666;SDS011;67983;59.830;30.198;2023-05-23T18:17:51;5.10;;;2.70;;
78666;SDS011;67983;59.830;30.198;2023-05-23T18:20:19;4.50;;;3.08;;
78666;SDS011;67983;59.830;30.198;2023-05-23T18:22:50;5.20;;;3.35;;
78666;SDS011;67983;59.830;30.198;2023-05-23T18:25:20;3.75;;;3.08;;
78666;SDS011;67983;59.830;30.198;2023-05-23T18:27:53;8.70;;;6.32;;
78666;SDS011;67983;59.830;30.198;2023-05-23T18:30:23;7.13;;;3.92;;
78666;SDS011;67983;59.830;30.198;2023-05-23T18:33:21;5.72;;;3.88;;
78666;SDS011;67983;59.830;30.198;2023-05-23T18:35:49;7.35;;;4.35;;
78666;SDS011;67983;59.830;30.198;2023-05-23T18:38:17;4.53;;;3.65;;
78666;SDS011;67983;59.830;30.198;2023-05-23T18:40:46;7.50;;;3.67;;
78666;SDS011;67983;59.830;30.198;2023-05-23T18:43:16;4.47;;;3.70;;
78666;SDS011;67983;59.830;30.198;2023-05-23T18:45:44;5.80;;;3.05;;
78666;SDS011;67983;59.830;30.198;2023-05-23T18:48:14;6.13;;;3.25;;
78666;SDS011;67983;59.830;30.198;2023-05-23T18:50:45;5.15;;;3.30;;
78666;SDS011;67983;59.830;30.198;2023-05-23T18:53:43;8.82;;;2.78;;
78666;SDS011;67983;59.830;30.198;2023-05-23T18:56:12;6.72;;;3.58;;
78666;SDS011;67983;59.830;30.198;2023-05-23T18:58:43;7.78;;;3.05;;
78666;SDS011;67983;59.830;30.198;2023-05-23T19:01:11;4.88;;;3.00;;
78666;SDS011;67983;59.830;30.198;2023-05-23T19:04:03;8.07;;;3.53;;
78666;SDS011;67983;59.830;30.198;2023-05-23T19:06:33;6.82;;;4.05;;
78666;SDS011;67983;59.830;30.198;2023-05-23T19:09:00;6.55;;;4.15;;
78666;SDS011;67983;59.830;30.198;2023-05-23T19:11:36;5.70;;;3.50;;
78666;SDS011;67983;59.830;30.198;2023-05-23T19:14:03;8.57;;;4.22;;
78666;SDS011;67983;59.830;30.198;2023-05-23T19:17:02;6.60;;;3.78;;
78666;SDS011;67983;59.830;30.198;2023-05-23T19:19:31;9.85;;;4.28;;
78666;SDS011;67983;59.830;30.198;2023-05-23T19:22:00;6.60;;;3.80;;
78666;SDS011;67983;59.830;30.198;2023-05-23T19:26:59;7.25;;;3.67;;
78666;SDS011;67983;59.830;30.198;2023-05-23T19:29:27;5.82;;;3.60;;
78666;SDS011;67983;59.830;30.198;2023-05-23T19:31:59;10.30;;;4.20;;
78666;SDS011;67983;59.830;30.198;2023-05-23T19:34:26;7.35;;;4.40;;
78666;SDS011;67983;59.830;30.198;2023-05-23T19:37:04;12.38;;;5.18;;
78666;SDS011;67983;59.830;30.198;2023-05-23T19:39:32;9.48;;;5.03;;
78666;SDS011;67983;59.830;30.198;2023-05-23T19:41:59;10.32;;;4.80;;
78666;SDS011;67983;59.830;30.198;2023-05-23T19:44:27;11.20;;;5.97;;
78666;SDS011;67983;59.830;30.198;2023-05-23T19:47:21;10.55;;;5.47;;
78666;SDS011;67983;59.830;30.198;2023-05-23T19:49:54;9.05;;;5.25;;
78666;SDS011;67983;59.830;30.198;2023-05-23T19:52:26;11.63;;;5.70;;
78666;SDS011;67983;59.830;30.198;2023-05-23T19:54:56;12.52;;;6.53;;
78666;SDS011;67983;59.830;30.198;2023-05-23T19:57:26;10.20;;;6.40;;
78666;SDS011;67983;59.830;30.198;2023-05-23T19:59:54;11.32;;;7.40;;
78666;SDS011;67983;59.830;30.198;2023-05-23T20:02:21;15.68;;;7.57;;
78666;SDS011;67983;59.830;30.198;2023-05-23T20:04:52;12.55;;;6.07;;
78666;SDS011;67983;59.830;30.198;2023-05-23T20:07:19;10.80;;;6.35;;
78666;SDS011;67983;59.830;30.198;2023-05-23T20:09:48;15.02;;;6.10;;
78666;SDS011;67983;59.830;30.198;2023-05-23T20:12:19;10.35;;;5.25;;
78666;SDS011;67983;59.830;30.198;2023-05-23T20:14:46;8.55;;;6.45;;
78666;SDS011;67983;59.830;30.198;2023-05-23T20:17:13;15.07;;;8.82;;
78666;SDS011;67983;59.830;30.198;2023-05-23T20:22:11;16.45;;;6.18;;
78666;SDS011;67983;59.830;30.198;2023-05-23T20:24:38;13.50;;;5.85;;
78666;SDS011;67983;59.830;30.198;2023-05-23T20:27:10;14.20;;;6.00;;
78666;SDS011;67983;59.830;30.198;2023-05-23T20:29:40;12.80;;;5.85;;
78666;SDS011;67983;59.830;30.198;2023-05-23T20:32:09;12.50;;;6.40;;
78666;SDS011;67983;59.830;30.198;2023-05-23T20:34:36;13.20;;;6.03;;
78666;SDS011;67983;59.830;30.198;2023-05-23T20:37:07;13.30;;;5.75;;
78666;SDS011;67983;59.830;30.198;2023-05-23T20:39:37;16.50;;;6.00;;
78666;SDS011;67983;59.830;30.198;2023-05-23T20:42:07;13.65;;;6.53;;
78666;SDS011;67983;59.830;30.198;2023-05-23T20:44:40;15.63;;;7.53;;
78666;SDS011;67983;59.830;30.198;2023-05-23T20:47:08;13.93;;;7.22;;
78666;SDS011;67983;59.830;30.198;2023-05-23T20:49:36;14.60;;;7.22;;
78666;SDS011;67983;59.830;30.198;2023-05-23T20:52:04;18.15;;;8.48;;
78666;SDS011;67983;59.830;30.198;2023-05-23T20:54:31;17.23;;;7.78;;
78666;SDS011;67983;59.830;30.198;2023-05-23T20:57:00;14.07;;;6.82;;
78666;SDS011;67983;59.830;30.198;2023-05-23T20:59:29;14.65;;;7.13;;
78666;SDS011;67983;59.830;30.198;2023-05-23T21:01:58;14.68;;;6.55;;
78666;SDS011;67983;59.830;30.198;2023-05-23T21:04:26;13.50;;;7.47;;
78666;SDS011;67983;59.830;30.198;2023-05-23T21:06:53;11.98;;;7.28;;
78666;SDS011;67983;59.830;30.198;2023-05-23T21:09:20;14.00;;;7.03;;
78666;SDS011;67983;59.830;30.198;2023-05-23T21:11:48;11.80;;;7.13;;
78666;SDS011;67983;59.830;30.198;2023-05-23T21:14:16;12.27;;;6.50;;
78666;SDS011;67983;59.830;30.198;2023-05-23T21:16:43;17.05;;;7.22;;
78666;SDS011;67983;59.830;30.198;2023-05-23T21:19:12;11.50;;;6.95;;
78666;SDS011;67983;59.830;30.198;2023-05-23T21:21:38;15.77;;;7.57;;
78666;SDS011;67983;59.830;30.198;2023-05-23T21:24:06;12.85;;;7.10;;
78666;SDS011;67983;59.830;30.198;2023-05-23T21:26:34;15.50;;;7.95;;
78666;SDS011;67983;59.830;30.198;2023-05-23T21:29:01;13.00;;;7.10;;
78666;SDS011;67983;59.830;30.198;2023-05-23T21:31:28;11.93;;;7.47;;
78666;SDS011;67983;59.830;30.198;2023-05-23T21:33:56;13.10;;;6.05;;
78666;SDS011;67983;59.830;30.198;2023-05-23T21:36:25;11.85;;;7.28;;
78666;SDS011;67983;59.830;30.198;2023-05-23T21:38:52;13.70;;;6.95;;
78666;SDS011;67983;59.830;30.198;2023-05-23T21:41:19;13.55;;;6.82;;
78666;SDS011;67983;59.830;30.198;2023-05-23T21:43:50;11.27;;;6.03;;
78666;SDS011;67983;59.830;30.198;2023-05-23T21:46:17;10.77;;;6.28;;
78666;SDS011;67983;59.830;30.198;2023-05-23T21:48:45;13.27;;;6.53;;
78666;SDS011;67983;59.830;30.198;2023-05-23T21:51:12;12.80;;;8.43;;
78666;SDS011;67983;59.830;30.198;2023-05-23T21:53:41;9.70;;;6.35;;
78666;SDS011;67983;59.830;30.198;2023-05-23T21:56:08;11.60;;;6.40;;
78666;SDS011;67983;59.830;30.198;2023-05-23T21:58:35;15.23;;;6.93;;
78666;SDS011;67983;59.830;30.198;2023-05-23T22:01:02;12.88;;;6.15;;
78666;SDS011;67983;59.830;30.198;2023-05-23T22:03:31;10.82;;;5.95;;
78666;SDS011;67983;59.830;30.198;2023-05-23T22:05:58;12.93;;;7.15;;
78666;SDS011;67983;59.830;30.198;2023-05-23T22:08:27;14.10;;;7.15;;
78666;SDS011;67983;59.830;30.198;2023-05-23T22:10:58;12.05;;;6.90;;
78666;SDS011;67983;59.830;30.198;2023-05-23T22:13:27;10.57;;;6.45;;
78666;SDS011;67983;59.830;30.198;2023-05-23T22:15:54;10.82;;;6.78;;
78666;SDS011;67983;59.830;30.198;2023-05-23T22:18:21;10.45;;;6.13;;
78666;SDS011;67983;59.830;30.198;2023-05-23T22:20:50;12.40;;;6.20;;
78666;SDS011;67983;59.830;30.198;2023-05-23T22:23:17;14.52;;;7.20;;
78666;SDS011;67983;59.830;30.198;2023-05-23T22:25:45;15.45;;;7.65;;
78666;SDS011;67983;59.830;30.198;2023-05-23T22:28:14;15.18;;;7.47;;
78666;SDS011;67983;59.830;30.198;2023-05-23T22:30:41;18.60;;;8.20;;
78666;SDS011;67983;59.830;30.198;2023-05-23T22:33:08;17.45;;;8.38;;
78666;SDS011;67983;59.830;30.198;2023-05-23T22:35:37;17.40;;;9.23;;
78666;SDS011;67983;59.830;30.198;2023-05-23T22:38:05;19.00;;;10.13;;
78666;SDS011;67983;59.830;30.198;2023-05-23T22:40:37;19.75;;;10.00;;
78666;SDS011;67983;59.830;30.198;2023-05-23T22:43:05;16.85;;;10.18;;
78666;SDS011;67983;59.830;30.198;2023-05-23T22:45:33;17.42;;;10.15;;
78666;SDS011;67983;59.830;30.198;2023-05-23T22:48:05;16.00;;;9.43;;
78666;SDS011;67983;59.830;30.198;2023-05-23T22:50:32;14.82;;;8.63;;
78666;SDS011;67983;59.830;30.198;2023-05-23T22:53:00;17.30;;;9.45;;
78666;SDS011;67983;59.830;30.198;2023-05-23T22:55:29;17.90;;;9.60;;
78666;SDS011;67983;59.830;30.198;2023-05-23T22:57:56;18.17;;;9.77;;
78666;SDS011;67983;59.830;30.198;2023-05-23T23:00:23;17.85;;;9.52;;
78666;SDS011;67983;59.830;30.198;2023-05-23T23:02:51;20.92;;;10.70;;
78666;SDS011;67983;59.830;30.198;2023-05-23T23:05:19;19.67;;;10.52;;
78666;SDS011;67983;59.830;30.198;2023-05-23T23:07:47;16.67;;;9.20;;
78666;SDS011;67983;59.830;30.198;2023-05-23T23:10:15;16.73;;;9.82;;
78666;SDS011;67983;59.830;30.198;2023-05-23T23:12:43;16.45;;;9.85;;
78666;SDS011;67983;59.830;30.198;2023-05-23T23:15:10;14.85;;;10.13;;
78666;SDS011;67983;59.830;30.198;2023-05-23T23:17:37;24.45;;;10.80;;
78666;SDS011;67983;59.830;30.198;2023-05-23T23:20:08;24.10;;;9.82;;
78666;SDS011;67983;59.830;30.198;2023-05-23T23:22:36;23.38;;;10.05;;
78666;SDS011;67983;59.830;30.198;2023-05-23T23:25:04;15.40;;;9.15;;
78666;SDS011;67983;59.830;30.198;2023-05-23T23:27:39;16.42;;;9.38;;
78666;SDS011;67983;59.830;30.198;2023-05-23T23:30:06;13.90;;;8.85;;
78666;SDS011;67983;59.830;30.198;2023-05-23T23:32:34;16.25;;;9.38;;
78666;SDS011;67983;59.830;30.198;2023-05-23T23:35:02;16.90;;;8.43;;
78666;SDS011;67983;59.830;30.198;2023-05-23T23:37:32;17.20;;;8.10;;
78666;SDS011;67983;59.830;30.198;2023-05-23T23:40:03;13.88;;;7.13;;
78666;SDS011;67983;59.830;30.198;2023-05-23T23:42:32;11.77;;;7.90;;
78666;SDS011;67983;59.830;30.198;2023-05-23T23:44:59;12.07;;;7.63;;
78666;SDS011;67983;59.830;30.198;2023-05-23T23:47:29;10.05;;;6.82;;
78666;SDS011;67983;59.830;30.198;2023-05-23T23:49:56;10.20;;;6.68;;
78666;SDS011;67983;59.830;30.198;2023-05-23T23:52:23;14.02;;;7.55;;
78666;SDS011;67983;59.830;30.198;2023-05-23T23:54:54;13.45;;;6.35;;
78666;SDS011;67983;59.830;30.198;2023-05-23T23:57:21;10.82;;;6.68;;
78666;SDS011;67983;59.830;30.198;2023-05-23T23:59:48;12.70;;;7.20;;
